createdAt,value
2018-06-25T00:02:11.486Z,32.90
2018-06-25T00:04:39.836Z,33.00
2018-06-25T00:07:08.172Z,33.00
2018-06-25T00:09:36.543Z,33.10
2018-06-25T00:12:04.999Z,33.10
2018-06-25T00:14:33.317Z,33.10
2018-06-25T00:17:01.949Z,33.20
2018-06-25T00:19:30.292Z,33.20
2018-06-25T00:21:58.827Z,33.30
2018-06-25T00:24:27.135Z,33.30
2018-06-25T00:26:55.436Z,33.30
2018-06-25T00:29:23.693Z,33.40
2018-06-25T00:31:52.224Z,33.40
2018-06-25T00:34:20.531Z,33.40
2018-06-25T00:36:48.845Z,33.50
2018-06-25T00:39:17.121Z,33.50
2018-06-25T00:41:45.431Z,33.60
2018-06-25T00:44:13.745Z,33.60
2018-06-25T00:46:42.166Z,33.60
2018-06-25T00:49:10.448Z,33.70
2018-06-25T00:51:38.887Z,33.60
2018-06-25T00:54:07.171Z,33.80
2018-06-25T00:56:35.646Z,33.70
2018-06-25T00:59:15.270Z,33.80
2018-06-25T01:01:43.565Z,33.80
2018-06-25T01:04:12.017Z,33.80
2018-06-25T01:06:41.547Z,33.90
2018-06-25T01:09:11.583Z,33.90
2018-06-25T01:11:40.679Z,34.00
2018-06-25T01:14:09.011Z,33.90
2018-06-25T01:16:37.396Z,33.90
2018-06-25T01:19:05.677Z,34.00
2018-06-25T01:21:33.959Z,34.10
2018-06-25T01:24:02.597Z,34.10
2018-06-25T01:26:30.919Z,34.20
2018-06-25T01:28:59.315Z,34.10
2018-06-25T01:31:27.595Z,34.20
2018-06-25T01:33:55.986Z,34.30
2018-06-25T01:36:24.330Z,35.00
2018-06-25T01:38:52.939Z,34.40
2018-06-25T01:41:21.395Z,34.40
2018-06-25T01:43:49.707Z,34.50
2018-06-25T01:46:18.036Z,34.50
2018-06-25T01:48:46.478Z,34.70
2018-06-25T01:51:14.777Z,34.70
2018-06-25T01:53:43.156Z,34.70
2018-06-25T01:56:11.597Z,34.80
2018-06-25T01:58:40.177Z,34.80
2018-06-25T02:01:08.526Z,34.90
2018-06-25T02:03:36.954Z,35.00
2018-06-25T02:06:05.470Z,34.90
2018-06-25T02:08:33.822Z,35.00
2018-06-25T02:11:02.267Z,35.00
2018-06-25T02:13:30.630Z,35.20
2018-06-25T02:15:59.004Z,35.20
2018-06-25T02:18:27.346Z,35.20
2018-06-25T02:20:55.666Z,35.20
2018-06-25T02:23:24.006Z,35.40
2018-06-25T02:25:52.606Z,35.40
2018-06-25T02:28:20.986Z,35.50
2018-06-25T02:30:49.358Z,35.50
2018-06-25T02:33:17.724Z,35.50
2018-06-25T02:35:46.154Z,35.50
2018-06-25T02:38:14.829Z,35.60
2018-06-25T02:40:43.435Z,35.80
2018-06-25T02:43:11.869Z,35.80
2018-06-25T02:45:40.353Z,35.70
2018-06-25T02:48:08.871Z,35.90
2018-06-25T02:50:37.285Z,35.90
2018-06-25T02:53:05.896Z,36.00
2018-06-25T02:55:34.353Z,36.10
2018-06-25T02:58:02.846Z,36.00
2018-06-25T03:00:31.192Z,36.10
2018-06-25T03:02:59.674Z,36.10
2018-06-25T03:05:28.044Z,36.20
2018-06-25T03:07:56.363Z,36.20
2018-06-25T03:10:24.687Z,36.30
2018-06-25T03:12:53.170Z,36.30
2018-06-25T03:15:21.615Z,36.30
2018-06-25T03:20:18.087Z,36.30
2018-06-25T03:22:46.608Z,36.40
2018-06-25T03:25:15.082Z,36.40
2018-06-25T03:27:43.607Z,36.50
2018-06-25T03:30:12.065Z,36.70
2018-06-25T03:32:40.446Z,36.80
2018-06-25T03:35:08.803Z,36.90
2018-06-25T03:37:37.106Z,37.00
2018-06-25T03:40:05.558Z,37.10
2018-06-25T03:42:33.854Z,37.20
2018-06-25T03:45:02.460Z,37.30
2018-06-25T03:47:30.786Z,37.40
2018-06-25T03:49:59.174Z,37.50
2018-06-25T03:52:27.590Z,37.60
2018-06-25T03:54:56.186Z,37.70
2018-06-25T03:57:24.542Z,37.70
2018-06-25T03:59:52.891Z,37.80
2018-06-25T04:02:21.200Z,37.90
2018-06-25T04:04:49.726Z,37.90
2018-06-25T04:07:18.152Z,37.90
2018-06-25T04:09:46.510Z,38.00
2018-06-25T04:12:14.891Z,38.00
2018-06-25T04:14:43.255Z,38.00
2018-06-25T04:17:11.627Z,38.00
2018-06-25T04:19:40.017Z,38.10
2018-06-25T04:22:08.328Z,38.10
2018-06-25T04:24:36.747Z,38.10
2018-06-25T04:27:05.101Z,38.20
2018-06-25T04:29:33.500Z,38.30
2018-06-25T04:32:01.839Z,38.30
2018-06-25T04:34:30.191Z,38.30
2018-06-25T04:36:58.539Z,38.30
2018-06-25T04:39:26.914Z,38.50
2018-06-25T04:41:55.538Z,38.50
2018-06-25T04:44:24.070Z,38.50
2018-06-25T04:46:52.379Z,38.60
2018-06-25T04:49:20.747Z,38.60
2018-06-25T04:51:49.063Z,38.70
2018-06-25T04:54:17.635Z,38.70
2018-06-25T04:56:46.126Z,38.70
2018-06-25T04:59:14.727Z,38.60
2018-06-25T05:01:44.187Z,38.60
2018-06-25T05:04:12.822Z,38.70
2018-06-25T05:06:41.624Z,38.70
2018-06-25T05:09:10.967Z,38.70
2018-06-25T05:11:39.727Z,38.70
2018-06-25T05:14:08.150Z,38.90
2018-06-25T05:16:37.004Z,38.90
2018-06-25T05:19:05.466Z,38.80
2018-06-25T05:21:33.913Z,38.80
2018-06-25T05:24:02.441Z,38.90
2018-06-25T05:26:30.866Z,38.90
2018-06-25T05:28:59.429Z,38.90
2018-06-25T05:31:27.869Z,38.90
2018-06-25T05:33:56.372Z,39.00
2018-06-25T05:36:24.836Z,39.00
2018-06-25T05:38:53.191Z,39.00
2018-06-25T05:41:21.651Z,39.70
2018-06-25T05:43:50.087Z,39.10
2018-06-25T05:46:18.880Z,39.10
2018-06-25T05:51:15.665Z,39.30
2018-06-25T05:53:44.519Z,39.30
2018-06-25T05:56:13.064Z,39.30
2018-06-25T05:58:41.586Z,39.30
2018-06-25T06:01:11.276Z,39.20
2018-06-25T06:03:40.116Z,39.40
2018-06-25T06:06:08.573Z,39.40
2018-06-25T06:08:36.939Z,39.40
2018-06-25T06:11:05.323Z,39.50
2018-06-25T06:13:33.660Z,39.50
2018-06-25T06:16:02.273Z,39.50
2018-06-25T06:18:30.745Z,39.60
2018-06-25T06:20:59.489Z,39.50
2018-06-25T06:23:27.906Z,39.60
2018-06-25T06:25:56.322Z,39.70
2018-06-25T06:28:24.854Z,39.60
2018-06-25T06:30:53.291Z,39.70
2018-06-25T06:33:21.824Z,39.60
2018-06-25T06:35:50.386Z,39.60
2018-06-25T06:38:18.836Z,39.60
2018-06-25T06:40:47.580Z,39.60
2018-06-25T06:43:15.990Z,39.60
2018-06-25T06:45:47.692Z,39.70
2018-06-25T06:48:16.417Z,39.80
2018-06-25T06:50:45.647Z,39.70
2018-06-25T06:53:14.187Z,39.80
2018-06-25T06:55:42.745Z,40.00
2018-06-25T06:58:11.142Z,39.80
2018-06-25T07:00:39.603Z,39.80
2018-06-25T07:03:08.186Z,40.00
2018-06-25T07:05:36.596Z,39.80
2018-06-25T07:08:06.695Z,39.80
2018-06-25T07:10:35.071Z,39.70
2018-06-25T07:13:03.450Z,39.60
2018-06-25T07:15:31.889Z,39.60
2018-06-25T07:18:00.395Z,40.40
2018-06-25T07:20:28.873Z,39.90
2018-06-25T07:22:57.319Z,39.90
2018-06-25T07:25:25.914Z,39.80
2018-06-25T07:27:54.339Z,39.80
2018-06-25T07:30:22.901Z,39.80
2018-06-25T07:32:51.325Z,39.80
2018-06-25T07:37:47.954Z,39.70
2018-06-25T07:40:16.503Z,39.50
2018-06-25T07:42:45.278Z,39.30
2018-06-25T07:45:13.879Z,39.20
2018-06-25T07:47:42.413Z,39.20
2018-06-25T07:50:10.852Z,39.10
2018-06-25T07:52:39.263Z,38.90
2018-06-25T07:55:07.706Z,38.80
2018-06-25T07:57:36.250Z,38.90
2018-06-25T08:00:04.912Z,38.80
2018-06-25T08:02:33.322Z,38.80
2018-06-25T08:05:01.894Z,38.80
2018-06-25T08:07:30.456Z,38.70
2018-06-25T08:09:58.974Z,38.80
2018-06-25T08:12:27.347Z,38.70
2018-06-25T08:14:55.764Z,38.70
2018-06-25T08:17:24.507Z,38.70
2018-06-25T08:19:53.804Z,38.60
2018-06-25T08:22:22.366Z,38.60
2018-06-25T08:24:50.918Z,39.30
2018-06-25T08:27:19.540Z,38.80
2018-06-25T08:29:48.164Z,38.90
2018-06-25T08:32:16.684Z,39.00
2018-06-25T08:34:45.289Z,39.30
2018-06-25T08:37:14.566Z,39.20
2018-06-25T08:39:43.250Z,39.20
2018-06-25T08:42:12.343Z,39.30
2018-06-25T08:44:40.819Z,39.40
2018-06-25T08:47:09.256Z,39.40
2018-06-25T08:49:37.695Z,39.70
2018-06-25T08:52:06.448Z,40.10
2018-06-25T08:54:35.048Z,40.70
2018-06-25T08:57:03.463Z,41.70
2018-06-25T08:59:31.910Z,42.40
2018-06-25T09:02:00.385Z,41.90
2018-06-25T09:04:28.758Z,41.20
2018-06-25T09:06:57.126Z,40.40
2018-06-25T09:09:25.543Z,39.30
2018-06-25T09:11:53.962Z,38.50
2018-06-25T09:14:22.397Z,37.70
2018-06-25T09:16:50.977Z,37.30
2018-06-25T09:19:19.535Z,37.00
2018-06-25T09:21:48.126Z,36.80
2018-06-25T09:24:16.707Z,36.60
2018-06-25T09:26:45.388Z,36.50
2018-06-25T09:29:13.806Z,36.40
2018-06-25T09:31:42.573Z,36.40
2018-06-25T09:34:16.546Z,36.40
2018-06-25T09:36:45.295Z,36.30
2018-06-25T09:39:13.751Z,36.60
2018-06-25T09:41:42.338Z,37.40
2018-06-25T09:44:11.683Z,37.50
2018-06-25T09:46:40.418Z,37.50
2018-06-25T09:49:08.909Z,37.40
2018-06-25T09:51:37.252Z,37.20
2018-06-25T09:54:05.875Z,37.20
2018-06-25T09:56:34.280Z,37.80
2018-06-25T09:59:02.666Z,39.70
2018-06-25T10:01:31.014Z,41.20
2018-06-25T10:03:59.386Z,41.80
2018-06-25T10:06:27.752Z,40.30
2018-06-25T10:08:56.123Z,38.20
2018-06-25T10:11:24.634Z,37.40
2018-06-25T10:16:27.698Z,38.60
2018-06-25T10:18:56.114Z,38.50
2018-06-25T10:21:24.617Z,36.70
2018-06-25T10:23:52.951Z,34.70
2018-06-25T10:26:21.344Z,32.80
2018-06-25T10:28:49.841Z,31.20
2018-06-25T10:31:18.261Z,30.10
2018-06-25T10:33:46.951Z,29.70
2018-06-25T10:36:15.495Z,29.50
2018-06-25T10:38:44.057Z,29.40
2018-06-25T10:41:12.837Z,29.20
2018-06-25T10:43:41.290Z,30.00
2018-06-25T10:46:09.604Z,31.60
2018-06-25T10:48:38.087Z,32.70
2018-06-25T10:51:06.703Z,33.10
2018-06-25T10:53:35.133Z,33.00
2018-06-25T10:56:03.761Z,31.90
2018-06-25T10:58:32.322Z,30.10
2018-06-25T11:01:00.700Z,28.90
2018-06-25T11:03:29.250Z,28.50
2018-06-25T11:05:57.852Z,27.80
2018-06-25T11:08:26.328Z,28.40
2018-06-25T11:10:54.634Z,29.00
2018-06-25T11:13:23.260Z,29.50
2018-06-25T11:15:51.631Z,29.60
2018-06-25T11:18:19.964Z,29.50
2018-06-25T11:20:48.327Z,29.40
2018-06-25T11:23:16.997Z,29.00
2018-06-25T11:25:45.454Z,28.10
2018-06-25T11:28:13.945Z,26.90
2018-06-25T11:30:42.358Z,26.20
2018-06-25T11:33:10.721Z,25.40
2018-06-25T11:35:39.018Z,24.60
2018-06-25T11:38:07.543Z,24.10
2018-06-25T11:40:35.908Z,23.90
2018-06-25T11:43:04.422Z,23.60
2018-06-25T11:45:32.786Z,23.90
2018-06-25T11:48:01.119Z,23.50
2018-06-25T11:50:29.495Z,24.20
2018-06-25T11:52:57.828Z,25.00
2018-06-25T11:55:26.160Z,25.50
2018-06-25T11:57:54.604Z,25.70
2018-06-25T12:00:23.093Z,25.70
2018-06-25T12:02:52.634Z,25.50
2018-06-25T12:05:26.724Z,24.70
2018-06-25T12:07:59.419Z,23.80
2018-06-25T12:10:27.945Z,23.00
2018-06-25T12:12:56.222Z,22.80
2018-06-25T12:15:24.536Z,23.20
2018-06-25T12:17:52.897Z,23.40
2018-06-25T12:20:21.336Z,23.30
2018-06-25T12:22:49.642Z,23.20
2018-06-25T12:25:18.099Z,23.20
2018-06-25T12:30:14.694Z,22.80
2018-06-25T12:32:43.095Z,22.60
2018-06-25T12:35:11.473Z,22.30
2018-06-25T12:37:40.000Z,21.60
2018-06-25T12:42:36.389Z,20.10
2018-06-25T12:45:04.975Z,19.70
2018-06-25T12:47:33.517Z,19.30
2018-06-25T12:50:01.853Z,19.00
2018-06-25T12:52:30.343Z,19.20
2018-06-25T12:54:58.771Z,19.20
2018-06-25T12:57:27.274Z,19.50
2018-06-25T12:59:55.846Z,20.10
2018-06-25T13:02:24.302Z,20.50
2018-06-25T13:04:52.641Z,20.70
2018-06-25T13:07:21.034Z,20.50
2018-06-25T13:09:49.722Z,20.40
2018-06-25T13:12:18.318Z,20.10
2018-06-25T13:14:46.805Z,19.70
2018-06-25T13:17:15.330Z,19.40
2018-06-25T13:19:44.132Z,19.00
2018-06-25T13:22:12.988Z,18.50
2018-06-25T13:24:41.646Z,17.70
2018-06-25T13:27:10.128Z,17.10
2018-06-25T13:29:38.532Z,16.70
2018-06-25T13:32:07.423Z,17.00
2018-06-25T13:34:36.199Z,17.30
2018-06-25T13:37:04.653Z,17.40
2018-06-25T13:39:33.202Z,17.20
2018-06-25T13:42:01.660Z,17.00
2018-06-25T13:44:30.116Z,16.80
2018-06-25T13:46:58.484Z,16.40
2018-06-25T13:49:27.059Z,16.60
2018-06-25T13:51:55.449Z,17.00
2018-06-25T13:54:23.910Z,17.40
2018-06-25T13:56:52.405Z,17.50
2018-06-25T13:59:20.719Z,17.20
2018-06-25T14:01:49.264Z,16.50
2018-06-25T14:04:17.636Z,16.10
2018-06-25T14:06:46.222Z,15.90
2018-06-25T14:09:14.719Z,15.80
2018-06-25T14:11:43.186Z,16.10
2018-06-25T14:14:11.716Z,16.60
2018-06-25T14:16:40.291Z,16.80
2018-06-25T14:19:08.667Z,17.30
2018-06-25T14:21:37.099Z,17.70
2018-06-25T14:24:11.015Z,18.00
2018-06-25T14:26:42.902Z,17.70
2018-06-25T14:29:16.734Z,17.50
2018-06-25T14:31:45.193Z,16.40
2018-06-25T14:34:19.002Z,16.30
2018-06-25T14:36:47.813Z,16.20
2018-06-25T14:39:16.304Z,16.70
2018-06-25T14:41:44.700Z,16.90
2018-06-25T14:44:13.080Z,17.20
2018-06-25T14:46:41.692Z,17.30
2018-06-25T14:49:10.219Z,17.10
2018-06-25T14:51:38.615Z,16.60
2018-06-25T14:54:07.073Z,16.00
2018-06-25T14:56:35.411Z,15.60
2018-06-25T14:59:03.734Z,15.50
2018-06-25T15:01:32.238Z,15.50
2018-06-25T15:04:00.619Z,16.00
2018-06-25T15:06:29.088Z,16.20
2018-06-25T15:08:57.433Z,16.30
2018-06-25T15:11:25.753Z,16.50
2018-06-25T15:13:54.154Z,16.60
2018-06-25T15:16:22.608Z,16.60
2018-06-25T15:18:51.109Z,16.80
2018-06-25T15:21:19.494Z,16.80
2018-06-25T15:23:48.041Z,16.80
2018-06-25T15:26:16.598Z,16.50
2018-06-25T15:28:45.438Z,16.40
2018-06-25T15:31:14.000Z,16.10
2018-06-25T15:33:42.531Z,15.60
2018-06-25T15:36:11.091Z,15.10
2018-06-25T15:38:39.517Z,15.10
2018-06-25T15:41:08.248Z,15.00
2018-06-25T15:43:36.832Z,15.30
2018-06-25T15:46:05.356Z,15.60
2018-06-25T15:48:33.862Z,15.50
2018-06-25T15:51:02.213Z,15.40
2018-06-25T15:53:30.566Z,15.30
2018-06-25T15:55:59.016Z,15.30
2018-06-25T15:58:27.475Z,15.40
2018-06-25T16:00:55.862Z,15.50
2018-06-25T16:03:24.244Z,15.70
2018-06-25T16:05:52.567Z,16.40
2018-06-25T16:08:21.218Z,16.20
2018-06-25T16:10:49.612Z,16.30
2018-06-25T16:13:18.073Z,16.50
2018-06-25T16:15:46.519Z,16.70
2018-06-25T16:18:15.062Z,16.90
2018-06-25T16:20:43.660Z,17.00
2018-06-25T16:23:12.379Z,17.20
2018-06-25T16:25:40.890Z,17.30
2018-06-25T16:28:09.420Z,17.50
2018-06-25T16:30:37.830Z,17.70
2018-06-25T16:33:06.344Z,17.90
2018-06-25T16:35:34.835Z,18.10
2018-06-25T16:38:03.316Z,18.20
2018-06-25T16:40:31.775Z,18.30
2018-06-25T16:43:00.494Z,18.50
2018-06-25T16:45:29.050Z,18.60
2018-06-25T16:47:57.489Z,18.80
2018-06-25T16:50:26.212Z,18.80
2018-06-25T16:52:54.594Z,18.80
2018-06-25T16:55:22.962Z,18.80
2018-06-25T16:57:51.298Z,18.90
2018-06-25T17:00:19.777Z,19.00
2018-06-25T17:02:48.273Z,19.10
2018-06-25T17:05:17.147Z,19.10
2018-06-25T17:07:45.691Z,19.20
2018-06-25T17:10:14.590Z,19.30
2018-06-25T17:12:43.147Z,19.30
2018-06-25T17:15:11.562Z,19.40
2018-06-25T17:17:40.048Z,19.40
2018-06-25T17:20:08.422Z,19.40
2018-06-25T17:22:37.005Z,19.50
2018-06-25T17:25:05.575Z,19.40
2018-06-25T17:27:33.916Z,19.70
2018-06-25T17:30:02.288Z,19.80
2018-06-25T17:32:30.646Z,19.90
2018-06-25T17:34:58.990Z,20.00
2018-06-25T17:37:27.546Z,20.20
2018-06-25T17:39:55.935Z,20.40
2018-06-25T17:42:24.306Z,20.60
2018-06-25T17:44:52.668Z,20.60
2018-06-25T17:47:21.155Z,20.80
2018-06-25T17:49:49.691Z,20.90
2018-06-25T17:52:18.495Z,20.90
2018-06-25T17:54:46.858Z,21.10
2018-06-25T17:57:15.338Z,21.10
2018-06-25T17:59:43.729Z,21.20
2018-06-25T18:02:12.164Z,21.20
2018-06-25T18:04:40.658Z,21.40
2018-06-25T18:07:09.305Z,21.50
2018-06-25T18:09:37.659Z,21.60
2018-06-25T18:12:06.173Z,21.70
2018-06-25T18:14:34.575Z,21.80
2018-06-25T18:17:03.298Z,21.80
2018-06-25T18:19:31.721Z,21.90
2018-06-25T18:22:00.082Z,21.90
2018-06-25T18:24:28.640Z,22.00
2018-06-25T18:26:57.056Z,22.10
2018-06-25T18:29:25.500Z,22.20
2018-06-25T18:31:53.893Z,22.30
2018-06-25T18:34:22.399Z,22.40
2018-06-25T18:36:50.818Z,22.50
2018-06-25T18:39:19.158Z,22.60
2018-06-25T18:41:48.036Z,22.70
2018-06-25T18:44:17.226Z,22.80
2018-06-25T18:46:45.974Z,22.90
2018-06-25T18:49:14.439Z,23.00
2018-06-25T18:51:42.887Z,23.10
2018-06-25T18:54:11.311Z,23.20
2018-06-25T18:56:40.482Z,23.20
2018-06-25T18:59:08.850Z,23.90
2018-06-25T19:01:37.569Z,23.50
2018-06-25T19:04:06.443Z,23.60
2018-06-25T19:06:35.105Z,23.70
2018-06-25T19:09:03.984Z,23.80
2018-06-25T19:11:32.437Z,24.10
2018-06-25T19:14:00.803Z,23.90
2018-06-25T19:16:29.749Z,24.00
2018-06-25T19:18:58.075Z,24.10
2018-06-25T19:21:26.460Z,24.10
2018-06-25T19:23:55.172Z,24.20
2018-06-25T19:26:24.182Z,24.30
2018-06-25T19:28:52.664Z,24.30
2018-06-25T19:31:21.214Z,24.40
2018-06-25T19:33:49.736Z,24.40
2018-06-25T19:36:18.287Z,24.50
2018-06-25T19:38:46.877Z,24.50
2018-06-25T19:41:16.080Z,24.60
2018-06-25T19:43:44.678Z,24.70
2018-06-25T19:46:13.348Z,24.50
2018-06-25T19:48:41.838Z,24.80
2018-06-25T19:51:10.461Z,24.90
2018-06-25T19:53:39.090Z,24.90
2018-06-25T19:56:08.581Z,25.00
2018-06-25T19:58:37.029Z,25.00
2018-06-25T20:01:05.731Z,25.10
2018-06-25T20:03:34.068Z,25.20
2018-06-25T20:06:02.536Z,25.30
2018-06-25T20:08:30.942Z,25.40
2018-06-25T20:10:59.306Z,25.40
2018-06-25T20:13:27.754Z,25.50
2018-06-25T20:15:56.293Z,25.60
2018-06-25T20:18:24.713Z,25.60
2018-06-25T20:20:53.038Z,25.70
2018-06-25T21:45:19.784Z,25.90
2018-06-25T21:47:48.254Z,28.30
2018-06-25T21:50:16.879Z,28.50
2018-06-25T21:52:45.322Z,28.70
2018-06-25T21:55:13.992Z,28.70
2018-06-25T21:57:42.645Z,28.60
2018-06-25T22:00:12.906Z,28.70
2018-06-25T22:02:41.686Z,28.70
2018-06-25T22:05:10.149Z,28.60
2018-06-25T22:07:38.468Z,28.60
2018-06-25T22:10:07.653Z,28.60
2018-06-25T22:12:36.056Z,28.60
2018-06-25T22:15:04.964Z,28.70
2018-06-25T22:17:33.449Z,28.80
2018-06-25T22:20:01.817Z,28.80
2018-06-25T22:22:30.267Z,28.80
2018-06-25T22:24:58.621Z,28.90
2018-06-25T22:27:27.056Z,28.90
2018-06-25T22:29:55.451Z,29.00
2018-06-25T22:32:23.856Z,29.10
2018-06-25T22:34:52.358Z,29.20
2018-06-25T22:37:20.934Z,29.20
2018-06-25T22:39:49.325Z,29.30
2018-06-25T22:42:17.765Z,29.30
2018-06-25T22:44:46.170Z,29.40
2018-06-25T22:47:14.684Z,29.40
2018-06-25T22:49:43.061Z,29.50
2018-06-25T22:52:12.819Z,29.60
2018-06-25T22:54:47.648Z,29.60
2018-06-25T22:57:16.015Z,29.70
2018-06-25T22:59:44.402Z,29.70
2018-06-25T23:02:12.768Z,29.80
2018-06-25T23:04:41.158Z,29.90
2018-06-25T23:07:09.589Z,29.90
2018-06-25T23:09:37.988Z,30.00
2018-06-25T23:12:06.389Z,30.00
2018-06-25T23:14:34.717Z,30.70
2018-06-25T23:17:03.768Z,30.10
2018-06-25T23:19:32.298Z,30.80
2018-06-25T23:22:00.711Z,30.20
2018-06-25T23:24:29.039Z,30.30
2018-06-25T23:26:57.482Z,30.40
2018-06-25T23:29:25.935Z,30.50
2018-06-25T23:31:54.358Z,31.20
2018-06-25T23:34:22.827Z,30.70
2018-06-25T23:36:51.178Z,30.90
2018-06-25T23:39:19.506Z,30.90
2018-06-25T23:41:47.919Z,31.10
2018-06-25T23:44:16.387Z,31.20
2018-06-25T23:46:44.822Z,31.30
2018-06-25T23:49:13.228Z,32.00
2018-06-25T23:51:41.596Z,31.50
2018-06-25T23:54:09.973Z,31.70
2018-06-25T23:56:38.414Z,31.80
2018-06-25T23:59:06.802Z,31.80
